Time;durP1;ratioP1;P1;durP2;ratioP2;P2;SDS_P1;SDS_P2;PMS_P1;PMS_P2;Temp;Humidity;BMP_temperature;BMP_pressure;BME280_temperature;BME280_humidity;BME280_pressure;Samples;Min_cycle;Max_cycle;Signal;HPM_P1;HPM_P2
2023/10/15 00:00:37;;;;;;;24.43;9.33;;;;;;;-144.30;67.63;85420.28;5053116;28;20201;-56
2023/10/15 00:03:06;;;;;;;16.53;9.57;;;;;;;-144.30;67.42;85406.38;5053078;28;20201;-59
2023/10/15 00:05:35;;;;;;;12.63;9.13;;;;;;;-144.30;67.77;85402.41;5053084;28;20594;-59
2023/10/15 00:08:03;;;;;;;19.83;10.37;;;;;;;-144.30;68.32;85388.47;5052965;28;20254;-55
2023/10/15 00:10:31;;;;;;;20.83;9.83;;;;;;;-144.30;67.87;85362.63;5052977;28;20197;-56
2023/10/15 00:12:59;;;;;;;18.57;10.07;;;;;;;-144.30;67.48;85426.25;5052779;28;20220;-59
2023/10/15 00:15:28;;;;;;;19.43;10.03;;;;;;;-144.30;67.31;85420.28;5052989;28;20228;-59
2023/10/15 00:17:58;;;;;;;13.80;9.90;;;;;;;-144.30;67.51;85444.16;5052867;28;20250;-58
2023/10/15 00:20:31;;;;;;;18.20;10.53;;;;;;;-144.30;67.63;85394.44;5052802;28;20200;-57
2023/10/15 00:23:04;;;;;;;22.03;10.47;;;;;;;-144.30;67.60;85404.38;5052707;28;20195;-59
2023/10/15 00:25:35;;;;;;;20.30;9.77;;;;;;;-144.30;67.65;85408.34;5052735;28;20211;-58
2023/10/15 00:28:05;;;;;;;16.20;10.10;;;;;;;-144.30;68.18;85412.34;5052650;28;20310;-58
2023/10/15 00:30:33;;;;;;;16.23;10.17;;;;;;;-144.30;68.24;85428.25;5052572;28;20211;-56
2023/10/15 00:33:03;;;;;;;18.57;10.67;;;;;;;-144.30;68.50;85378.53;5052653;28;20696;-58
2023/10/15 00:35:33;;;;;;;26.03;10.90;;;;;;;-144.30;68.35;85833.81;5052529;28;20299;-59
2023/10/15 00:38:07;;;;;;;21.37;11.10;;;;;;;-144.30;68.21;85428.25;5052781;28;20270;-59
2023/10/15 00:40:38;;;;;;;18.27;10.70;;;;;;;-144.30;68.57;85438.19;5052647;28;20716;-56
2023/10/15 00:43:05;;;;;;;20.77;10.77;;;;;;;-144.30;68.24;85466.00;5052462;28;20687;-56
2023/10/15 00:45:39;;;;;;;15.73;10.93;;;;;;;-144.30;68.32;85448.13;5052301;28;20258;-55
2023/10/15 00:48:11;;;;;;;19.53;10.70;;;;;;;-144.30;67.58;85366.63;5052269;28;20556;-55
2023/10/15 00:50:41;;;;;;;17.50;11.13;;;;;;;-144.30;67.63;85456.06;5052072;28;20200;-56
2023/10/15 00:53:21;;;;;;;19.60;10.57;;;;;;;-144.30;68.66;85636.97;5052201;28;20696;-55
2023/10/15 00:55:51;;;;;;;25.90;10.43;;;;;;;-144.30;68.86;85460.03;5052369;28;20579;-56
2023/10/15 00:58:22;;;;;;;26.10;12.43;;;;;;;-144.30;68.86;85422.28;5051673;28;20200;-55
2023/10/15 01:00:53;;;;;;;17.73;11.17;;;;;;;-144.30;68.63;85444.16;5051553;28;20216;-56
2023/10/15 01:03:30;;;;;;;25.53;11.43;;;;;;;-144.30;68.70;85376.56;5052138;28;20682;-56
2023/10/15 01:06:04;;;;;;;18.53;11.33;;;;;;;-144.30;68.79;85438.19;5052222;28;20203;-55
2023/10/15 01:08:35;;;;;;;20.43;10.80;;;;;;;-144.30;69.17;85432.22;5052007;28;20645;-56
2023/10/15 01:11:11;;;;;;;20.97;10.60;;;;;;;-144.30;70.31;85483.91;5051793;28;20204;-55
2023/10/15 01:13:39;;;;;;;19.70;10.43;;;;;;;-144.30;70.26;85491.84;5051450;28;20289;-58
2023/10/15 01:16:08;;;;;;;22.67;10.33;;;;;;;-144.30;70.30;85444.16;5051183;28;20201;-58
2023/10/15 01:18:36;;;;;;;17.40;10.37;;;;;;;-144.30;71.45;85471.97;5051462;28;20216;-58
2023/10/15 01:21:05;;;;;;;18.03;10.13;;;;;;;-144.30;72.10;85491.84;5051664;28;20207;-58
2023/10/15 01:23:43;;;;;;;21.43;9.83;;;;;;;-144.30;72.96;85503.78;5051536;28;20192;-58
2023/10/15 01:26:17;;;;;;;22.13;10.47;;;;;;;-144.30;72.94;85495.84;5051723;28;20228;-59
2023/10/15 01:28:45;;;;;;;18.53;10.13;;;;;;;-144.30;72.61;85509.75;5051357;28;20726;-59
2023/10/15 01:31:15;;;;;;;22.30;10.70;;;;;;;-144.30;72.49;85521.69;5051497;28;20232;-58
2023/10/15 01:33:47;;;;;;;19.87;10.70;;;;;;;-144.30;72.55;85487.88;5051446;28;20228;-58
2023/10/15 01:36:19;;;;;;;16.33;10.67;;;;;;;-144.30;72.09;85505.78;5051356;28;20201;-58
2023/10/15 01:38:46;;;;;;;12.07;9.63;;;;;;;-144.30;71.84;85479.94;5051233;28;20208;-58
2023/10/15 01:41:16;;;;;;;15.40;10.80;;;;;;;-144.30;71.96;85442.16;5051285;28;20525;-58
2023/10/15 01:43:46;;;;;;;20.37;11.87;;;;;;;-144.30;72.53;85517.69;5051361;28;20202;-59
2023/10/15 01:46:23;;;;;;;22.23;10.33;;;;;;;-144.30;73.00;85468.00;5050803;28;20649;-55
2023/10/15 01:48:50;;;;;;;21.47;10.23;;;;;;;-144.30;73.32;85583.31;5050567;28;20250;-56
2023/10/15 01:51:17;;;;;;;21.73;11.27;;;;;;;-144.30;73.24;85513.72;5050706;28;20291;-55
2023/10/15 01:53:45;;;;;;;15.23;10.30;;;;;;;-144.30;73.53;85533.59;5050931;28;20294;-55
2023/10/15 01:56:17;;;;;;;16.50;10.83;;;;;;;-144.30;73.07;85539.56;5051014;28;20200;-55
2023/10/15 01:58:45;;;;;;;14.90;11.00;;;;;;;-144.30;72.67;85533.59;5050697;28;20296;-55
2023/10/15 02:01:34;;;;;;;22.33;10.93;;;;;;;-144.30;72.08;85521.69;5050830;28;20235;-59
2023/10/15 02:04:01;;;;;;;22.03;10.70;;;;;;;-144.30;73.01;85589.28;5051128;28;20204;-58
2023/10/15 02:06:30;;;;;;;19.63;10.77;;;;;;;-144.30;73.34;85547.53;5051017;28;20292;-58
2023/10/15 02:08:57;;;;;;;23.93;11.07;;;;;;;-144.30;73.30;85539.56;5050837;28;20188;-58
2023/10/15 02:11:24;;;;;;;17.27;11.23;;;;;;;-144.30;72.61;85555.47;5050744;28;20201;-59
2023/10/15 02:13:55;;;;;;;15.67;10.33;;;;;;;-144.30;71.86;85497.81;5050575;28;20255;-59
2023/10/15 02:16:29;;;;;;;14.20;10.37;;;;;;;-144.30;71.30;85555.47;5051021;28;20676;-58
2023/10/15 02:18:58;;;;;;;15.53;9.27;;;;;;;-144.30;70.50;85507.75;5050844;28;20224;-58
2023/10/15 02:21:25;;;;;;;14.27;9.87;;;;;;;-144.30;70.53;85569.38;5050672;28;20966;-58
2023/10/15 02:23:52;;;;;;;13.23;10.03;;;;;;;-144.30;70.58;85541.56;5050720;28;20193;-56
2023/10/15 02:26:23;;;;;;;18.83;9.50;;;;;;;-144.30;70.57;85545.53;5050507;28;20219;-56
2023/10/15 02:28:53;;;;;;;13.50;9.07;;;;;;;-144.30;70.29;85549.50;5050251;28;20319;-55
2023/10/15 02:31:23;;;;;;;14.73;9.67;;;;;;;-144.30;70.76;85557.47;5050526;28;20201;-55
2023/10/15 02:33:51;;;;;;;14.57;9.97;;;;;;;-144.30;71.17;85559.44;5050645;28;20231;-56
2023/10/15 02:36:23;;;;;;;12.43;9.97;;;;;;;-144.30;71.20;85571.38;5050534;28;20196;-55
2023/10/15 02:38:53;;;;;;;16.07;9.93;;;;;;;-144.30;70.72;85591.25;5050611;28;20651;-55
2023/10/15 02:41:21;;;;;;;14.40;8.90;;;;;;;-144.30;71.04;85633.00;5050310;28;20207;-56
2023/10/15 02:43:53;;;;;;;17.87;9.13;;;;;;;-144.30;71.38;85551.50;5050423;28;20199;-59
2023/10/15 02:46:23;;;;;;;11.47;9.57;;;;;;;-144.30;71.52;85636.97;5050378;28;20208;-59
2023/10/15 02:48:53;;;;;;;17.57;9.23;;;;;;;-144.30;72.06;85633.00;5050334;28;20203;-58
2023/10/15 02:51:23;;;;;;;13.50;8.50;;;;;;;-144.30;72.09;85475.94;5050267;28;20251;-57
2023/10/15 02:53:54;;;;;;;15.47;8.67;;;;;;;-144.30;72.08;85642.94;5050510;28;20228;-58
2023/10/15 02:56:22;;;;;;;12.93;8.87;;;;;;;-144.30;72.47;85680.72;5050527;28;20722;-58
2023/10/15 02:58:51;;;;;;;16.13;9.93;;;;;;;-144.30;72.71;85646.91;5050295;28;20595;-58
2023/10/15 03:01:23;;;;;;;12.50;8.83;;;;;;;-144.30;72.78;85633.00;5049560;28;20189;-57
2023/10/15 03:03:53;;;;;;;12.40;9.17;;;;;;;-144.30;72.65;85644.94;5049486;28;20224;-58
2023/10/15 03:06:25;;;;;;;15.77;10.00;;;;;;;-144.30;72.74;85650.91;5049553;28;20200;-58
2023/10/15 03:08:53;;;;;;;10.23;9.20;;;;;;;-144.30;72.71;85668.78;5049652;28;20203;-58
2023/10/15 03:11:21;;;;;;;16.67;9.07;;;;;;;-144.30;72.58;85525.66;5052249;28;20695;-58
2023/10/15 03:13:53;;;;;;;15.47;8.33;;;;;;;-144.30;72.44;85619.09;5054090;28;20616;-59
2023/10/15 03:16:21;;;;;;;14.30;9.20;;;;;;;-144.30;72.32;85648.91;5053945;28;20215;-59
2023/10/15 03:18:49;;;;;;;16.77;8.87;;;;;;;-144.30;72.12;85625.06;5053905;28;20196;-58
2023/10/15 03:21:26;;;;;;;12.30;8.63;;;;;;;-144.30;72.52;85619.09;5053810;28;20201;-57
2023/10/15 03:23:56;;;;;;;14.93;9.10;;;;;;;-144.30;72.95;85631.03;5053957;28;20658;-58
2023/10/15 03:26:24;;;;;;;16.13;9.07;;;;;;;-144.30;73.14;85662.81;5053961;28;20279;-58
2023/10/15 03:28:52;;;;;;;17.50;9.20;;;;;;;-144.30;73.53;85694.63;5053465;28;20263;-57
2023/10/15 03:31:24;;;;;;;17.60;9.47;;;;;;;-144.30;73.79;85686.69;5053674;28;20205;-59
2023/10/15 03:36:50;;;;;;;18.13;9.60;;;;;;;-144.30;73.94;85660.84;5053980;28;20246;-58
2023/10/15 03:39:24;;;;;;;14.50;10.27;;;;;;;-144.30;74.38;85670.78;5053402;28;20197;-57
2023/10/15 03:41:54;;;;;;;10.63;9.30;;;;;;;-144.30;74.77;85682.72;5053530;28;20628;-55
2023/10/15 03:44:27;;;;;;;23.10;9.77;;;;;;;-144.30;74.79;85623.06;5053464;28;20274;-55
2023/10/15 03:46:57;;;;;;;10.87;8.90;;;;;;;-144.30;75.13;85670.78;5053542;28;20224;-58
2023/10/15 03:49:27;;;;;;;17.30;10.23;;;;;;;-144.30;75.45;85710.53;5053264;28;20295;-58
2023/10/15 03:51:56;;;;;;;10.60;9.23;;;;;;;-144.30;76.34;85778.13;5053259;28;20204;-58
2023/10/15 03:54:23;;;;;;;13.80;9.53;;;;;;;-144.30;76.64;85764.22;5053364;28;20193;-55
2023/10/15 03:56:51;;;;;;;18.13;10.70;;;;;;;-144.30;76.63;85738.38;5053051;28;20200;-58
2023/10/15 03:59:19;;;;;;;18.13;10.00;;;;;;;-144.30;76.91;85744.34;5052814;28;20192;-55
2023/10/15 04:01:48;;;;;;;16.13;9.80;;;;;;;-144.30;77.05;85734.41;5052663;28;20284;-55
2023/10/15 04:04:17;;;;;;;12.57;9.70;;;;;;;-144.30;77.41;85746.31;5052723;28;20317;-56
2023/10/15 04:06:51;;;;;;;20.90;10.67;;;;;;;-144.30;77.56;85744.34;5051365;28;20196;-55
2023/10/15 04:09:25;;;;;;;16.70;9.77;;;;;;;-144.30;77.65;85750.31;5051705;28;20216;-55
2023/10/15 04:11:51;;;;;;;14.87;10.27;;;;;;;-144.30;77.63;85748.31;5072797;28;20261;-58
2023/10/15 04:14:26;;;;;;;19.90;10.80;;;;;;;-144.30;77.40;85776.16;5072548;28;20192;-58
2023/10/15 04:16:53;;;;;;;21.77;9.70;;;;;;;-144.30;78.04;85780.13;5072255;28;20207;-58
2023/10/15 04:19:20;;;;;;;23.63;10.33;;;;;;;-144.30;78.61;85754.28;5072799;28;20192;-58
2023/10/15 04:21:47;;;;;;;13.47;10.40;;;;;;;-144.30;78.76;85750.31;5071909;28;20620;-57
2023/10/15 04:24:21;;;;;;;14.70;10.20;;;;;;;-144.30;78.59;85722.47;5071717;28;20733;-58
2023/10/15 04:26:50;;;;;;;18.63;10.43;;;;;;;-144.30;78.64;85730.41;5072010;28;20200;-58
2023/10/15 04:29:21;;;;;;;12.97;9.20;;;;;;;-144.30;78.17;85738.38;5071704;28;20231;-58
2023/10/15 04:32:00;;;;;;;17.47;9.57;;;;;;;-144.30;77.80;85710.53;5052151;28;20732;-58
2023/10/15 04:34:29;;;;;;;16.27;10.07;;;;;;;-144.30;77.56;85710.53;5052057;28;20553;-59
2023/10/15 04:36:58;;;;;;;17.07;10.40;;;;;;;-144.30;77.69;85746.31;5051775;28;20204;-57
2023/10/15 04:39:25;;;;;;;17.77;9.60;;;;;;;-144.30;77.19;85720.47;5052367;28;20291;-58
2023/10/15 04:41:55;;;;;;;16.00;10.23;;;;;;;-144.30;76.93;85662.81;5052566;28;20686;-58
2023/10/15 04:44:25;;;;;;;23.53;10.00;;;;;;;-144.30;76.58;85702.59;5034400;28;20269;-58
2023/10/15 04:47:03;;;;;;;37.97;10.37;;;;;;;-144.30;76.82;85690.66;5031723;28;20280;-58
2023/10/15 04:49:31;;;;;;;21.97;11.27;;;;;;;-144.30;76.68;85680.72;5036722;28;20212;-57
2023/10/15 04:51:58;;;;;;;15.93;10.33;;;;;;;-144.30;76.54;85676.75;5066204;28;20200;-58
2023/10/15 04:54:25;;;;;;;17.73;9.73;;;;;;;-144.30;76.46;85682.72;5072054;28;20192;-56
2023/10/15 04:56:54;;;;;;;14.90;9.87;;;;;;;-144.30;75.98;85654.88;5071831;28;20217;-56
2023/10/15 04:59:21;;;;;;;11.17;9.70;;;;;;;-144.30;76.07;85702.59;5071542;28;20270;-56
2023/10/15 05:01:49;;;;;;;14.20;9.47;;;;;;;-144.30;76.22;85654.88;5071816;28;20214;-56
2023/10/15 05:04:16;;;;;;;18.53;10.17;;;;;;;-144.30;76.00;85635.00;5071185;28;20220;-55
2023/10/15 05:06:43;;;;;;;27.50;10.50;;;;;;;-144.30;75.60;85674.75;5055300;28;20262;-55
2023/10/15 05:09:20;;;;;;;16.87;10.27;;;;;;;-144.30;75.01;85680.72;5052121;28;20192;-55
2023/10/15 05:11:49;;;;;;;13.13;9.80;;;;;;;-144.30;74.78;85635.00;5051676;28;20576;-55
2023/10/15 05:14:18;;;;;;;14.30;9.83;;;;;;;-144.30;73.96;85523.66;5051754;28;20202;-55
2023/10/15 05:16:46;;;;;;;13.53;10.40;;;;;;;-144.30;71.61;85515.72;5051930;28;20201;-57
2023/10/15 05:19:16;;;;;;;14.17;9.83;;;;;;;-144.30;67.92;85428.25;5051011;28;20254;-57
2023/10/15 05:21:44;;;;;;;15.63;8.53;;;;;;;-144.30;64.36;85338.78;5052118;28;20220;-55
2023/10/15 05:24:11;;;;;;;17.93;8.97;;;;;;;-144.30;60.19;85153.91;5051442;28;20282;-56
2023/10/15 05:26:38;;;;;;;15.60;8.50;;;;;;;-144.30;55.43;85040.59;5043943;28;20199;-56
2023/10/15 05:29:05;;;;;;;13.55;8.73;;;;;;;-144.30;52.75;84943.22;5041099;28;20231;-56
2023/10/15 05:31:33;;;;;;;12.35;9.25;;;;;;;-144.30;49.78;84802.09;5039625;28;20196;-57
2023/10/15 05:34:00;;;;;;;14.15;9.02;;;;;;;-144.30;47.49;84722.59;5041891;28;20280;-56
2023/10/15 05:36:27;;;;;;;14.45;8.77;;;;;;;-144.30;46.21;84657.00;5040275;28;20207;-57
2023/10/15 05:38:54;;;;;;;11.23;8.05;;;;;;;-144.30;45.45;84653.03;5042249;28;20201;-55
2023/10/15 05:41:23;;;;;;;15.55;8.00;;;;;;;-144.30;45.15;84589.41;5051407;28;20223;-56
2023/10/15 05:43:50;;;;;;;13.75;8.23;;;;;;;-144.30;43.40;84498.00;5051182;28;20220;-57
2023/10/15 05:46:17;;;;;;;15.70;7.80;;;;;;;-144.30;42.19;84382.72;5050857;28;20280;-58
2023/10/15 05:48:47;;;;;;;13.63;7.85;;;;;;;-144.30;40.02;84207.84;5050337;28;20218;-59
2023/10/15 05:51:14;;;;;;;8.35;7.25;;;;;;;-144.30;38.63;84140.28;5039492;28;21598;-55
2023/10/15 05:53:41;;;;;;;13.50;8.10;;;;;;;-144.30;37.51;84031.00;5030965;28;20208;-56
2023/10/15 05:56:08;;;;;;;12.52;8.05;;;;;;;-144.30;36.39;83995.22;5031057;28;20723;-58
2023/10/15 05:58:36;;;;;;;10.18;7.50;;;;;;;-144.30;36.14;83921.69;5031066;28;20678;-57
2023/10/15 06:01:03;;;;;;;11.38;7.55;;;;;;;-144.30;35.42;83822.34;5039690;28;20262;-58
2023/10/15 06:03:30;;;;;;;9.32;6.68;;;;;;;-144.30;34.73;83770.69;5048530;28;20200;-56
2023/10/15 06:05:59;;;;;;;12.32;6.97;;;;;;;-144.30;34.59;83719.03;5067807;28;20208;-57
2023/10/15 06:08:26;;;;;;;17.10;8.15;;;;;;;-144.30;33.96;83625.63;5069484;28;20199;-58
2023/10/15 06:10:53;;;;;;;12.60;6.70;;;;;;;-144.30;32.73;83486.56;5070066;28;20203;-57
2023/10/15 06:13:20;;;;;;;11.93;6.85;;;;;;;-144.30;31.56;83317.66;5069530;28;20192;-58
2023/10/15 06:15:48;;;;;;;16.10;6.93;;;;;;;-144.30;30.90;83200.47;5070333;28;20192;-57
2023/10/15 06:18:15;;;;;;;10.95;6.95;;;;;;;-144.30;30.57;83166.69;5068825;28;20192;-57
2023/10/15 06:20:42;;;;;;;8.45;6.10;;;;;;;-144.30;30.33;83103.13;5069170;28;20200;-57
2023/10/15 06:23:13;;;;;;;8.98;6.43;;;;;;;-144.30;29.79;83009.75;5069048;28;20283;-58
2023/10/15 06:25:42;;;;;;;9.02;6.55;;;;;;;-144.30;29.28;82914.38;5068984;28;20257;-58
2023/10/15 06:28:13;;;;;;;13.35;6.68;;;;;;;-144.30;29.06;82823.00;5069246;28;20238;-57
2023/10/15 06:30:41;;;;;;;11.32;6.50;;;;;;;-144.30;28.68;82737.59;5069472;28;20325;-56
2023/10/15 06:33:08;;;;;;;8.60;7.28;;;;;;;-144.30;28.08;82624.38;5068535;28;20196;-57
2023/10/15 06:35:35;;;;;;;8.93;7.13;;;;;;;-144.30;27.75;82644.22;5068966;28;20199;-57
2023/10/15 06:38:02;;;;;;;9.07;6.28;;;;;;;-144.30;28.22;82737.59;5068972;28;20192;-57
2023/10/15 06:40:31;;;;;;;12.65;7.20;;;;;;;-144.30;29.11;82960.06;5068957;28;20203;-57
2023/10/15 06:43:01;;;;;;;9.32;7.45;;;;;;;-144.30;30.15;83222.31;5069290;28;20214;-57
2023/10/15 06:45:28;;;;;;;11.55;7.70;;;;;;;-144.30;31.49;83454.75;5071837;28;20246;-58
2023/10/15 06:47:55;;;;;;;12.18;7.88;;;;;;;-144.30;33.46;83728.97;5073294;28;20204;-58
2023/10/15 06:50:23;;;;;;;11.35;8.18;;;;;;;-144.30;35.78;84015.09;5073673;28;20198;-58
2023/10/15 06:52:50;;;;;;;15.30;8.27;;;;;;;-144.30;37.57;84184.00;5051780;28;20209;-57
2023/10/15 06:55:19;;;;;;;11.20;8.05;;;;;;;-144.30;38.84;84263.50;5033430;28;20591;-58
2023/10/15 06:57:48;;;;;;;15.85;8.90;;;;;;;-144.30;39.77;84295.28;5033289;28;20197;-58
2023/10/15 07:00:22;;;;;;;14.05;8.43;;;;;;;-144.30;40.94;84406.59;5033665;28;20193;-57
2023/10/15 07:02:49;;;;;;;16.52;7.93;;;;;;;-144.30;42.42;84474.16;5033783;28;20212;-58
2023/10/15 07:05:18;;;;;;;12.10;8.00;;;;;;;-144.30;43.34;84597.38;5033212;28;20220;-57
2023/10/15 07:07:46;;;;;;;13.23;7.85;;;;;;;-144.30;43.84;84565.56;5033527;28;20592;-58
2023/10/15 07:10:15;;;;;;;10.80;7.70;;;;;;;-144.30;43.63;84581.47;5033240;28;20267;-58
2023/10/15 07:12:44;;;;;;;8.68;7.82;;;;;;;-144.30;44.66;84585.44;5033268;28;20292;-58
2023/10/15 07:15:14;;;;;;;19.67;7.47;;;;;;;-144.30;45.32;84645.06;5033251;28;20266;-57
2023/10/15 07:17:42;;;;;;;16.58;8.48;;;;;;;-144.30;45.96;84672.91;5032972;28;20213;-56
2023/10/15 07:20:15;;;;;;;13.07;8.00;;;;;;;-144.30;46.73;84728.56;5033018;28;20200;-58
2023/10/15 07:22:43;;;;;;;9.10;8.18;;;;;;;-144.30;47.26;84710.66;5033189;28;20197;-56
2023/10/15 07:25:10;;;;;;;12.80;8.10;;;;;;;-144.30;47.31;85062.47;5033063;28;20220;-59
2023/10/15 07:27:37;;;;;;;12.57;7.95;;;;;;;-144.30;47.04;84686.81;5032969;28;20233;-57
2023/10/15 07:30:07;;;;;;;11.10;7.60;;;;;;;-144.30;46.84;84676.88;5033128;28;20198;-59
2023/10/15 07:32:36;;;;;;;11.45;7.85;;;;;;;-144.30;46.92;84674.88;5032916;28;20262;-56
2023/10/15 07:35:03;;;;;;;10.82;7.32;;;;;;;-144.30;46.21;84676.88;5033171;28;20609;-57
2023/10/15 07:37:30;;;;;;;10.00;6.97;;;;;;;-144.30;45.73;84625.19;5032990;28;20193;-56
2023/10/15 07:39:57;;;;;;;18.42;10.48;;;;;;;-144.30;46.32;84688.81;5033051;28;20280;-57
2023/10/15 07:42:25;;;;;;;11.88;8.13;;;;;;;-144.30;46.72;84718.63;5033078;28;20205;-58
2023/10/15 07:44:52;;;;;;;13.63;7.63;;;;;;;-144.30;46.84;84726.56;5032887;28;20719;-58
2023/10/15 07:47:19;;;;;;;11.75;7.07;;;;;;;-144.30;46.63;84700.72;5032779;28;20208;-58
2023/10/15 07:49:47;;;;;;;12.00;6.70;;;;;;;-144.30;45.96;84651.03;5033033;28;20673;-57
2023/10/15 07:52:16;;;;;;;13.18;7.65;;;;;;;-144.30;46.05;84664.94;5032881;28;20197;-57
2023/10/15 07:54:43;;;;;;;11.02;6.78;;;;;;;-144.30;46.65;84700.72;5032638;28;20194;-57
2023/10/15 07:57:12;;;;;;;9.05;7.22;;;;;;;-144.30;47.23;84704.69;5031968;28;20288;-56
2023/10/15 07:59:39;;;;;;;8.95;6.45;;;;;;;-144.30;47.31;84726.56;5032456;28;20263;-58
2023/10/15 08:02:07;;;;;;;7.55;6.95;;;;;;;-144.30;47.53;84730.53;5032503;28;20201;-57
2023/10/15 08:04:34;;;;;;;11.13;7.25;;;;;;;-144.30;47.45;84728.56;5032270;28;20287;-57
2023/10/15 08:07:02;;;;;;;10.45;7.30;;;;;;;-144.30;47.35;84722.59;5032446;28;20261;-60
2023/10/15 08:09:30;;;;;;;16.23;7.75;;;;;;;-144.30;47.42;84674.88;5032570;28;20662;-56
2023/10/15 08:11:57;;;;;;;11.73;7.18;;;;;;;-144.30;47.81;84688.81;5032405;28;20288;-56
2023/10/15 08:14:24;;;;;;;17.10;7.60;;;;;;;-144.30;47.89;84734.50;5032630;28;20216;-57
2023/10/15 08:16:51;;;;;;;8.80;6.57;;;;;;;-144.30;48.49;84734.50;5035429;28;20288;-57
2023/10/15 08:19:18;;;;;;;11.27;7.50;;;;;;;-144.30;48.71;84742.47;5034280;28;20228;-57
2023/10/15 08:21:45;;;;;;;13.57;7.25;;;;;;;-144.30;48.48;84736.50;5032361;28;20199;-57
2023/10/15 08:24:15;;;;;;;9.68;7.28;;;;;;;-144.30;48.42;84704.69;5032227;28;20753;-57
2023/10/15 08:26:41;;;;;;;12.18;7.45;;;;;;;-144.30;48.44;84720.59;5032272;28;20201;-57
2023/10/15 08:29:09;;;;;;;9.38;7.40;;;;;;;-144.30;48.73;84710.66;5031981;28;20237;-57
2023/10/15 08:31:36;;;;;;;8.52;7.28;;;;;;;-144.30;48.62;84704.69;5032299;28;20700;-56
2023/10/15 08:34:03;;;;;;;14.95;7.45;;;;;;;-144.30;48.90;84710.66;5032380;28;20194;-57
2023/10/15 08:36:30;;;;;;;14.07;6.57;;;;;;;-144.30;49.15;84692.78;5032027;28;20284;-56
2023/10/15 08:38:57;;;;;;;16.38;7.65;;;;;;;-144.30;49.05;84666.94;5032286;28;20644;-57
2023/10/15 08:41:28;;;;;;;15.65;7.05;;;;;;;-144.30;49.39;84629.19;5031900;28;20593;-56
2023/10/15 08:43:55;;;;;;;14.02;7.78;;;;;;;-144.30;49.06;84724.56;5032342;28;20216;-56
2023/10/15 08:46:23;;;;;;;17.00;7.35;;;;;;;-144.30;49.20;84692.78;5031903;28;20236;-56
2023/10/15 08:48:51;;;;;;;24.02;7.05;;;;;;;-144.30;49.00;84647.06;5032015;28;20207;-57
2023/10/15 08:51:21;;;;;;;11.40;7.53;;;;;;;-144.30;49.20;84708.66;5031938;28;20214;-58
2023/10/15 08:53:50;;;;;;;7.95;6.93;;;;;;;-144.30;48.75;84676.88;5030972;28;20204;-57
2023/10/15 08:56:21;;;;;;;8.23;6.88;;;;;;;-144.30;48.72;84676.88;5052136;28;20291;-57
2023/10/15 08:58:54;;;;;;;9.70;6.60;;;;;;;-144.30;49.20;84660.97;5065468;28;20215;-57
2023/10/15 09:01:21;;;;;;;9.40;6.75;;;;;;;-144.30;49.50;84708.66;5071156;28;20208;-57
2023/10/15 09:03:48;;;;;;;11.43;7.47;;;;;;;-144.30;49.10;84668.94;5050597;28;20591;-56
2023/10/15 09:06:16;;;;;;;10.55;7.15;;;;;;;-144.30;48.99;84664.94;5052941;28;20224;-57
2023/10/15 09:08:44;;;;;;;7.18;6.57;;;;;;;-144.30;48.57;84653.03;5067869;28;20199;-57
2023/10/15 09:11:12;;;;;;;10.38;6.90;;;;;;;-144.30;48.22;84593.41;5070588;28;20199;-58
2023/10/15 09:13:38;;;;;;;9.98;6.95;;;;;;;-144.30;48.12;84682.84;5071490;28;20597;-57
2023/10/15 09:16:09;;;;;;;9.52;6.40;;;;;;;-144.30;47.80;84643.09;5071140;28;20302;-57
2023/10/15 09:18:36;;;;;;;7.78;6.38;;;;;;;-144.30;47.61;84637.13;5070880;28;20283;-56
2023/10/15 09:21:04;;;;;;;7.18;6.38;;;;;;;-144.30;47.61;84617.25;5070449;28;20198;-56
2023/10/15 09:23:35;;;;;;;13.23;6.30;;;;;;;-144.30;47.23;84597.38;5060018;28;20199;-56
2023/10/15 09:26:03;;;;;;;9.00;7.15;;;;;;;-144.30;46.60;84539.75;5036552;28;20236;-56
2023/10/15 09:28:31;;;;;;;11.73;6.78;;;;;;;-144.30;46.48;84599.34;5039538;28;20603;-56
2023/10/15 09:31:05;;;;;;;13.57;7.35;;;;;;;-144.30;46.42;84569.53;5042945;28;20299;-56
2023/10/15 09:33:34;;;;;;;13.27;7.47;;;;;;;-144.30;45.88;84541.72;5044780;28;20702;-57
2023/10/15 09:36:03;;;;;;;11.43;6.22;;;;;;;-144.30;45.94;84553.66;5038167;28;20189;-57
2023/10/15 09:38:32;;;;;;;7.35;6.50;;;;;;;-144.30;45.07;84549.69;5031144;28;20208;-57
2023/10/15 09:40:59;;;;;;;11.90;6.20;;;;;;;-144.30;44.96;84494.03;5038902;28;20605;-56
2023/10/15 09:43:26;;;;;;;13.10;7.03;;;;;;;-144.30;45.00;84551.66;5041276;28;20291;-56
2023/10/15 09:45:54;;;;;;;11.00;7.30;;;;;;;-144.30;44.33;84448.31;5039044;28;20611;-56
2023/10/15 09:48:23;;;;;;;10.00;6.32;;;;;;;-144.30;44.36;84484.09;5040194;28;20684;-56
2023/10/15 09:50:53;;;;;;;12.57;6.82;;;;;;;-144.30;44.19;84464.22;5039157;28;20197;-57
2023/10/15 09:53:22;;;;;;;9.98;6.15;;;;;;;-144.30;44.48;84456.25;5039526;28;20212;-57
2023/10/15 09:55:49;;;;;;;18.88;6.28;;;;;;;-144.30;44.44;84480.13;5038992;28;20192;-56
2023/10/15 09:58:17;;;;;;;8.65;6.15;;;;;;;-144.30;44.47;84452.28;5040214;28;20258;-57
2023/10/15 10:00:59;;;;;;;10.23;6.47;;;;;;;-144.30;43.63;84446.31;5041088;28;20208;-56
2023/10/15 10:04:04;;;;;;;16.60;6.55;;;;;;;-144.30;43.04;84810.03;5040788;28;20254;-56
2023/10/15 10:06:54;;;;;;;9.95;6.72;;;;;;;-144.30;43.17;84436.38;5038697;28;20298;-57
2023/10/15 10:09:40;;;;;;;13.50;6.75;;;;;;;-144.30;42.75;84414.53;5036959;28;20339;-57
2023/10/15 10:12:23;;;;;;;18.25;7.43;;;;;;;-144.30;43.15;84396.66;5030332;28;20201;-57
2023/10/15 10:15:10;;;;;;;7.15;6.50;;;;;;;-144.30;42.60;84398.63;5040435;28;20196;-56
2023/10/15 10:17:38;;;;;;;12.35;6.72;;;;;;;-144.30;42.47;84364.84;5047076;28;20201;-59
2023/10/15 10:20:11;;;;;;;8.45;6.30;;;;;;;-144.30;41.88;84299.25;5041034;28;20201;-58
2023/10/15 10:22:41;;;;;;;10.75;7.00;;;;;;;-144.30;41.69;84368.81;5032864;28;20275;-60
2023/10/15 10:25:11;;;;;;;8.25;7.32;;;;;;;-144.30;41.76;84295.28;5040543;28;20220;-56
2023/10/15 10:27:46;;;;;;;13.15;6.30;;;;;;;-144.30;41.81;84311.19;5032407;28;20695;-57
2023/10/15 10:30:28;;;;;;;11.38;6.88;;;;;;;-144.30;41.50;84295.28;5034345;28;20200;-57
2023/10/15 10:32:57;;;;;;;12.65;6.85;;;;;;;-144.30;41.46;84303.25;5030160;28;20200;-58
2023/10/15 10:35:26;;;;;;;14.55;7.20;;;;;;;-144.30;41.57;84249.59;5029895;28;20256;-58
2023/10/15 10:38:05;;;;;;;7.22;5.88;;;;;;;-144.30;40.74;84285.34;5029810;28;20211;-57
2023/10/15 10:40:51;;;;;;;17.85;6.65;;;;;;;-144.30;40.50;84247.59;5030053;28;20204;-58
2023/10/15 10:43:19;;;;;;;15.95;6.55;;;;;;;-144.30;40.58;84877.63;5029926;28;20204;-56
2023/10/15 10:45:56;;;;;;;13.65;6.35;;;;;;;-144.30;40.33;84219.78;5029721;28;20260;-56
2023/10/15 10:48:24;;;;;;;10.82;6.53;;;;;;;-144.30;39.79;84231.69;5030309;28;20206;-56
2023/10/15 10:51:21;;;;;;;10.65;6.22;;;;;;;-144.30;39.65;84239.66;5039942;28;20212;-57
2023/10/15 10:54:26;;;;;;;8.82;6.60;;;;;;;-144.30;39.70;84193.94;5039659;28;20204;-56
2023/10/15 10:57:08;;;;;;;9.07;5.70;;;;;;;-144.30;39.85;84180.03;5037470;28;20239;-56
2023/10/15 10:59:36;;;;;;;11.77;6.05;;;;;;;-144.30;39.65;84150.22;5029990;28;20204;-56
2023/10/15 11:02:06;;;;;;;10.02;6.40;;;;;;;-144.30;39.18;84189.97;5039693;28;20197;-57
2023/10/15 11:04:34;;;;;;;14.73;6.43;;;;;;;-144.30;40.66;84178.03;5049837;28;20200;-58
2023/10/15 11:07:03;;;;;;;16.05;6.72;;;;;;;-144.30;39.46;84146.25;5049323;28;20226;-57
2023/10/15 11:09:31;;;;;;;6.40;5.90;;;;;;;-144.30;39.40;84170.09;5049308;28;20247;-58
2023/10/15 11:11:58;;;;;;;11.05;7.68;;;;;;;-144.30;39.88;84017.06;5049305;28;20598;-58
2023/10/15 11:14:27;;;;;;;13.93;6.82;;;;;;;-144.30;39.40;84122.41;5049627;28;20280;-56
2023/10/15 11:16:56;;;;;;;14.25;6.45;;;;;;;-144.30;39.28;84096.56;5049507;28;20196;-58
2023/10/15 11:19:25;;;;;;;8.15;6.15;;;;;;;-144.30;38.71;84072.72;5049572;28;20197;-59
2023/10/15 11:21:53;;;;;;;12.00;6.35;;;;;;;-144.30;38.97;83961.44;5049219;28;20205;-58
2023/10/15 11:24:23;;;;;;;8.95;7.03;;;;;;;-144.30;38.49;84058.81;5049589;28;20285;-58